Time;durP1;ratioP1;P1;durP2;ratioP2;P2;SDS_P1;SDS_P2;PMS_P1;PMS_P2;Temp;Humidity;BMP_temperature;BMP_pressure;BME280_temperature;BME280_humidity;BME280_pressure;Samples;Min_cycle;Max_cycle;Signal;HPM_P1;HPM_P2
2022/09/02 00:02:16;;;;;;;1.23;0.73;;;;;;;;;;5034995;28;20041;-58
2022/09/02 00:05:01;;;;;;;2.67;0.50;;;;;;;;;;5047079;28;20042;-58
2022/09/02 00:07:45;;;;;;;4.88;0.80;;;;;;;;;;5040172;28;20047;-57
2022/09/02 00:10:31;;;;;;;2.47;0.68;;;;;;;;;;5035992;28;20040;-58
2022/09/02 00:13:18;;;;;;;0.75;0.47;;;;;;;;;;5032825;28;20052;-58
2022/09/02 00:16:03;;;;;;;2.78;0.70;;;;;;;;;;5030444;28;20098;-57
2022/09/02 00:18:48;;;;;;;3.42;0.70;;;;;;;;;;5039369;28;20052;-58
2022/09/02 00:21:33;;;;;;;1.75;0.50;;;;;;;;;;5041242;28;20048;-58
2022/09/02 00:24:19;;;;;;;1.65;0.65;;;;;;;;;;5035566;28;20044;-58
2022/09/02 00:27:03;;;;;;;2.05;0.70;;;;;;;;;;5045941;28;20060;-58
2022/09/02 00:29:48;;;;;;;1.10;0.50;;;;;;;;;;5046353;28;20120;-58
2022/09/02 00:32:33;;;;;;;1.10;0.40;;;;;;;;;;5032187;28;20060;-58
2022/09/02 00:35:17;;;;;;;1.95;0.40;;;;;;;;;;5042250;28;20514;-58
2022/09/02 00:38:04;;;;;;;1.27;0.60;;;;;;;;;;5042304;28;20460;-58
2022/09/02 00:40:48;;;;;;;6.20;0.60;;;;;;;;;;5046923;28;20068;-58
2022/09/02 00:43:51;;;;;;;2.08;0.50;;;;;;;;;;5042239;28;20049;-56
2022/09/02 00:46:35;;;;;;;1.05;0.50;;;;;;;;;;5059049;28;20051;-59
2022/09/02 00:49:23;;;;;;;1.70;0.60;;;;;;;;;;5042255;28;20064;-59
2022/09/02 00:52:11;;;;;;;1.70;0.50;;;;;;;;;;5036630;28;20054;-56
2022/09/02 00:54:58;;;;;;;1.73;0.90;;;;;;;;;;5044985;28;20044;-56
2022/09/02 00:57:47;;;;;;;1.58;0.60;;;;;;;;;;5045394;28;20080;-57
2022/09/02 01:00:38;;;;;;;2.92;0.70;;;;;;;;;;5074885;28;20061;-58
2022/09/02 01:03:23;;;;;;;2.77;0.67;;;;;;;;;;5046227;28;20407;-57
2022/09/02 01:06:14;;;;;;;1.80;0.70;;;;;;;;;;5036707;28;20083;-57
2022/09/02 01:09:07;;;;;;;2.00;0.57;;;;;;;;;;5051789;28;20040;-57
2022/09/02 01:11:53;;;;;;;1.58;0.57;;;;;;;;;;5034995;28;20216;-58
2022/09/02 01:14:38;;;;;;;0.77;0.50;;;;;;;;;;5049438;28;20053;-57
2022/09/02 01:17:25;;;;;;;5.40;1.17;;;;;;;;;;5045669;28;20053;-58
2022/09/02 01:20:10;;;;;;;1.83;0.55;;;;;;;;;;5044622;28;20124;-58
2022/09/02 01:22:57;;;;;;;2.80;0.70;;;;;;;;;;5064557;28;20076;-57
2022/09/02 01:25:41;;;;;;;1.95;0.52;;;;;;;;;;5052450;28;20045;-57
2022/09/02 01:28:26;;;;;;;2.65;0.50;;;;;;;;;;5034714;28;20040;-58
2022/09/02 01:31:10;;;;;;;9.30;0.63;;;;;;;;;;5036837;28;20392;-58
2022/09/02 01:33:57;;;;;;;1.25;0.57;;;;;;;;;;5044699;28;20068;-57
2022/09/02 01:36:42;;;;;;;3.80;0.70;;;;;;;;;;5036218;28;20045;-57
2022/09/02 01:39:27;;;;;;;1.42;0.75;;;;;;;;;;5048416;28;20464;-58
2022/09/02 01:42:12;;;;;;;3.35;0.57;;;;;;;;;;5043168;28;20079;-58
2022/09/02 01:44:59;;;;;;;1.42;0.52;;;;;;;;;;5070905;28;20061;-57
2022/09/02 01:47:44;;;;;;;1.35;0.60;;;;;;;;;;5049201;28;20494;-58
2022/09/02 01:50:30;;;;;;;2.45;0.65;;;;;;;;;;5047925;28;20164;-58
2022/09/02 01:53:15;;;;;;;2.08;0.80;;;;;;;;;;5047831;28;20037;-58
2022/09/02 01:56:00;;;;;;;2.08;0.63;;;;;;;;;;5050772;28;20033;-58
2022/09/02 01:58:48;;;;;;;2.10;0.43;;;;;;;;;;5047296;28;20473;-58
2022/09/02 02:01:34;;;;;;;1.40;0.60;;;;;;;;;;5043960;28;20049;-57
2022/09/02 02:04:19;;;;;;;1.02;0.60;;;;;;;;;;5046950;28;20535;-57
2022/09/02 02:07:05;;;;;;;1.55;0.68;;;;;;;;;;5051773;28;20064;-57
2022/09/02 02:09:50;;;;;;;3.72;0.80;;;;;;;;;;5050673;28;20472;-58
2022/09/02 02:12:35;;;;;;;1.50;0.60;;;;;;;;;;5042322;28;20107;-57
2022/09/02 02:15:22;;;;;;;1.05;0.73;;;;;;;;;;5044240;28;20051;-57
2022/09/02 02:18:07;;;;;;;2.30;0.80;;;;;;;;;;5046645;28;20048;-57
2022/09/02 02:20:51;;;;;;;2.00;0.73;;;;;;;;;;5051107;28;20051;-57
2022/09/02 02:23:36;;;;;;;1.13;0.65;;;;;;;;;;5019272;28;20069;-58
2022/09/02 02:26:20;;;;;;;3.38;0.60;;;;;;;;;;5038849;28;20542;-60
2022/09/02 02:29:06;;;;;;;2.42;0.70;;;;;;;;;;5045810;28;20389;-60
2022/09/02 02:31:51;;;;;;;1.67;0.70;;;;;;;;;;5057415;28;20091;-57
2022/09/02 02:34:35;;;;;;;1.70;0.70;;;;;;;;;;5042455;28;20044;-57
2022/09/02 02:37:21;;;;;;;1.00;0.57;;;;;;;;;;5033645;28;20086;-57
2022/09/02 02:40:06;;;;;;;0.95;0.60;;;;;;;;;;5043589;28;20088;-57
2022/09/02 02:42:52;;;;;;;0.90;0.50;;;;;;;;;;5042376;28;20032;-58
2022/09/02 02:45:39;;;;;;;2.53;0.70;;;;;;;;;;5035805;28;20453;-58
2022/09/02 02:48:23;;;;;;;1.90;0.90;;;;;;;;;;5042958;28;20042;-58
2022/09/02 02:51:08;;;;;;;1.38;0.80;;;;;;;;;;5046348;28;20414;-58
2022/09/02 02:53:52;;;;;;;2.50;0.82;;;;;;;;;;5043076;28;20037;-57
2022/09/02 02:56:38;;;;;;;3.00;0.80;;;;;;;;;;5046007;28;20124;-57
2022/09/02 02:59:24;;;;;;;1.90;0.80;;;;;;;;;;5047414;28;20040;-57
2022/09/02 03:02:09;;;;;;;3.17;1.05;;;;;;;;;;5037136;28;20447;-58
2022/09/02 03:04:55;;;;;;;2.72;0.95;;;;;;;;;;5048788;28;20167;-57
2022/09/02 03:07:40;;;;;;;2.20;0.73;;;;;;;;;;5045748;28;20554;-57
2022/09/02 03:10:26;;;;;;;2.13;0.63;;;;;;;;;;5054111;28;20063;-60
2022/09/02 03:13:11;;;;;;;2.15;0.90;;;;;;;;;;5048355;28;20037;-58
2022/09/02 03:15:55;;;;;;;2.35;0.70;;;;;;;;;;5052355;28;20500;-58
2022/09/02 03:18:40;;;;;;;2.53;1.10;;;;;;;;;;5041081;28;20402;-58
2022/09/02 03:21:25;;;;;;;1.13;0.80;;;;;;;;;;5049729;28;20396;-58
2022/09/02 03:24:11;;;;;;;1.60;0.73;;;;;;;;;;5048544;28;20310;-58
2022/09/02 03:26:56;;;;;;;3.42;0.85;;;;;;;;;;5049809;28;20045;-58
2022/09/02 03:29:41;;;;;;;1.58;0.80;;;;;;;;;;5034529;28;20131;-57
2022/09/02 03:32:26;;;;;;;0.90;0.70;;;;;;;;;;5046489;28;20095;-58
2022/09/02 03:35:13;;;;;;;2.70;0.70;;;;;;;;;;5044680;28;20119;-57
2022/09/02 03:37:59;;;;;;;1.25;0.52;;;;;;;;;;5038577;28;20436;-58
2022/09/02 03:40:44;;;;;;;1.58;0.90;;;;;;;;;;5048385;28;20117;-58
2022/09/02 03:43:28;;;;;;;1.95;0.98;;;;;;;;;;5049475;28;20040;-58
2022/09/02 03:46:16;;;;;;;1.58;0.90;;;;;;;;;;5051681;28;20052;-58
2022/09/02 03:49:02;;;;;;;3.08;1.20;;;;;;;;;;5049197;28;20460;-58
2022/09/02 03:51:48;;;;;;;2.40;1.00;;;;;;;;;;5042214;28;20102;-58
2022/09/02 03:54:33;;;;;;;1.95;0.90;;;;;;;;;;5054720;28;20049;-57
2022/09/02 03:57:19;;;;;;;2.67;0.90;;;;;;;;;;5048332;28;20135;-57
2022/09/02 04:00:06;;;;;;;4.70;1.00;;;;;;;;;;5046814;28;20127;-56
2022/09/02 04:03:06;;;;;;;1.92;1.00;;;;;;;;;;5043442;28;20113;-57
2022/09/02 04:05:51;;;;;;;1.50;0.70;;;;;;;;;;5041227;28;20106;-57
2022/09/02 04:08:37;;;;;;;1.75;0.88;;;;;;;;;;5034512;28;20465;-59
2022/09/02 04:11:22;;;;;;;1.33;0.82;;;;;;;;;;5035524;28;20048;-55
2022/09/02 04:14:10;;;;;;;4.32;0.80;;;;;;;;;;5025050;28;20132;-57
2022/09/02 04:16:54;;;;;;;2.72;0.93;;;;;;;;;;5046879;28;20037;-58
2022/09/02 04:19:39;;;;;;;2.33;0.82;;;;;;;;;;5034484;28;20385;-58
2022/09/02 04:22:24;;;;;;;2.30;1.10;;;;;;;;;;5039585;28;20046;-57
2022/09/02 04:25:09;;;;;;;2.45;0.90;;;;;;;;;;5030042;28;20060;-57
2022/09/02 04:27:55;;;;;;;2.25;0.90;;;;;;;;;;5045832;28;20040;-59
2022/09/02 04:30:41;;;;;;;2.58;1.02;;;;;;;;;;5046732;28;20037;-59
2022/09/02 04:33:25;;;;;;;2.38;0.80;;;;;;;;;;5057014;28;20041;-58
2022/09/02 04:36:12;;;;;;;2.20;0.70;;;;;;;;;;5037139;28;20374;-58
2022/09/02 04:38:57;;;;;;;1.95;0.90;;;;;;;;;;5042479;28;20037;-58
2022/09/02 04:41:45;;;;;;;4.00;0.80;;;;;;;;;;5052838;28;20064;-60
2022/09/02 04:44:36;;;;;;;2.55;0.90;;;;;;;;;;5028513;28;20073;-58
2022/09/02 04:47:25;;;;;;;3.33;1.08;;;;;;;;;;5028568;28;20050;-59
2022/09/02 04:50:10;;;;;;;5.65;1.10;;;;;;;;;;5041267;28;20454;-59
2022/09/02 04:52:56;;;;;;;2.90;0.90;;;;;;;;;;5044021;28;20060;-59
2022/09/02 04:55:41;;;;;;;4.68;1.27;;;;;;;;;;5054008;28;20086;-58
2022/09/02 04:58:28;;;;;;;2.88;1.05;;;;;;;;;;5057634;28;20132;-59
2022/09/02 05:01:14;;;;;;;3.35;1.00;;;;;;;;;;5047853;28;20049;-59
2022/09/02 05:04:01;;;;;;;1.38;0.80;;;;;;;;;;5045484;28;20138;-57
2022/09/02 05:06:53;;;;;;;;;;;;;;;;;;5033314;28;20062;-58
2022/09/02 05:09:38;;;;;;;2.55;0.90;;;;;;;;;;5046999;28;20378;-59
2022/09/02 05:12:26;;;;;;;3.22;1.00;;;;;;;;;;5040552;28;20056;-57
2022/09/02 05:15:15;;;;;;;;;;;;;;;;;;5038654;28;20103;-58
2022/09/02 05:18:00;;;;;;;5.20;1.02;;;;;;;;;;5047320;28;20066;-58
2022/09/02 05:20:45;;;;;;;2.10;1.15;;;;;;;;;;5046149;28;20048;-58
2022/09/02 05:23:30;;;;;;;5.45;1.30;;;;;;;;;;5043382;28;20091;-58
2022/09/02 05:26:14;;;;;;;2.10;1.05;;;;;;;;;;5045954;28;20125;-58
2022/09/02 05:28:59;;;;;;;2.63;0.75;;;;;;;;;;5048150;28;20137;-58
2022/09/02 05:31:46;;;;;;;2.83;1.27;;;;;;;;;;5035787;28;20055;-59
2022/09/02 05:34:34;;;;;;;2.45;1.08;;;;;;;;;;5043947;28;20033;-60
2022/09/02 05:37:21;;;;;;;2.30;0.95;;;;;;;;;;5035282;28;20157;-58
2022/09/02 05:40:06;;;;;;;3.08;1.20;;;;;;;;;;5051381;28;20107;-58
2022/09/02 05:42:53;;;;;;;1.73;0.90;;;;;;;;;;5048738;28;20036;-58
2022/09/02 05:45:38;;;;;;;3.22;1.02;;;;;;;;;;5049073;28;20079;-58
2022/09/02 05:51:27;;;;;;;5.55;1.27;;;;;;;;;;5045177;28;20037;-59
2022/09/02 05:54:14;;;;;;;2.25;1.13;;;;;;;;;;5037282;28;20516;-58
2022/09/02 05:57:00;;;;;;;2.75;1.33;;;;;;;;;;5033786;28;20400;-58
2022/09/02 05:59:47;;;;;;;1.80;1.10;;;;;;;;;;5042083;28;20124;-58
2022/09/02 06:02:35;;;;;;;2.35;1.10;;;;;;;;;;5036887;28;20044;-57
2022/09/02 06:05:20;;;;;;;2.88;1.20;;;;;;;;;;5052501;28;20037;-58
2022/09/02 06:08:14;;;;;;;1.27;0.73;;;;;;;;;;5036779;28;20086;-58
2022/09/02 06:11:00;;;;;;;3.40;1.27;;;;;;;;;;5040937;28;20075;-59
2022/09/02 06:13:45;;;;;;;2.22;0.98;;;;;;;;;;5032925;28;20037;-59
2022/09/02 06:16:30;;;;;;;2.60;0.85;;;;;;;;;;5042348;28;20179;-59
2022/09/02 06:19:16;;;;;;;3.67;0.90;;;;;;;;;;5029636;28;20035;-58
2022/09/02 06:22:01;;;;;;;4.25;1.13;;;;;;;;;;5041521;28;20120;-57
2022/09/02 06:24:47;;;;;;;2.15;1.08;;;;;;;;;;5044455;28;20065;-60
2022/09/02 06:27:37;;;;;;;4.38;1.48;;;;;;;;;;5042816;28;20068;-59
2022/09/02 06:30:23;;;;;;;2.60;1.00;;;;;;;;;;5046717;28;20068;-58
2022/09/02 06:33:08;;;;;;;3.35;0.98;;;;;;;;;;5020306;28;20060;-58
2022/09/02 06:35:52;;;;;;;3.28;1.17;;;;;;;;;;5047641;28;20057;-58
2022/09/02 06:38:39;;;;;;;3.15;1.00;;;;;;;;;;5034649;28;20099;-56
2022/09/02 06:41:27;;;;;;;3.78;1.38;;;;;;;;;;5031508;28;20048;-56
2022/09/02 06:44:14;;;;;;;3.15;1.00;;;;;;;;;;5034064;28;20569;-56
2022/09/02 06:47:00;;;;;;;2.88;1.30;;;;;;;;;;5046307;28;20114;-61
2022/09/02 06:49:45;;;;;;;3.22;1.17;;;;;;;;;;5048259;28;20047;-58
2022/09/02 06:52:30;;;;;;;2.92;1.08;;;;;;;;;;5033100;28;20041;-59
2022/09/02 06:55:16;;;;;;;4.63;1.33;;;;;;;;;;5047454;28;20528;-57
2022/09/02 06:58:01;;;;;;;3.13;1.38;;;;;;;;;;5046759;28;20045;-58
2022/09/02 07:00:46;;;;;;;3.90;1.50;;;;;;;;;;5047497;28;20175;-56
2022/09/02 07:06:41;;;;;;;2.67;1.00;;;;;;;;;;5025869;28;21456;-57
2022/09/02 07:09:32;;;;;;;3.00;1.00;;;;;;;;;;5032193;28;20029;-55
2022/09/02 07:12:32;;;;;;;4.25;1.10;;;;;;;;;;5047287;28;20032;-59
2022/09/02 07:15:21;;;;;;;3.83;1.02;;;;;;;;;;5073190;28;20039;-57
2022/09/02 07:18:06;;;;;;;1.48;0.80;;;;;;;;;;5045966;28;20107;-59
2022/09/02 07:20:54;;;;;;;4.03;0.90;;;;;;;;;;5046778;28;20052;-54
2022/09/02 07:23:39;;;;;;;3.15;0.88;;;;;;;;;;5048955;28;20099;-59
2022/09/02 07:26:25;;;;;;;7.18;1.10;;;;;;;;;;5045811;28;20051;-58
2022/09/02 07:29:11;;;;;;;2.30;0.85;;;;;;;;;;5047053;28;20072;-53
2022/09/02 07:31:57;;;;;;;2.10;1.08;;;;;;;;;;5049187;28;20037;-57
2022/09/02 07:34:42;;;;;;;2.55;1.20;;;;;;;;;;5034004;28;20102;-57
2022/09/02 07:37:29;;;;;;;2.10;1.00;;;;;;;;;;5048052;28;20503;-59
2022/09/02 07:40:14;;;;;;;3.08;0.70;;;;;;;;;;5048819;28;20049;-58
2022/09/02 07:43:00;;;;;;;3.40;0.77;;;;;;;;;;5035794;28;20061;-56
2022/09/02 07:45:45;;;;;;;5.00;1.00;;;;;;;;;;5054090;28;20160;-57
2022/09/02 07:48:31;;;;;;;2.67;0.98;;;;;;;;;;5065917;28;20478;-57
2022/09/02 07:51:17;;;;;;;1.48;0.80;;;;;;;;;;5027569;28;20500;-60
2022/09/02 07:54:02;;;;;;;4.85;0.90;;;;;;;;;;5032473;28;20112;-58
2022/09/02 07:56:48;;;;;;;3.40;0.85;;;;;;;;;;5048677;28;20119;-56
2022/09/02 07:59:34;;;;;;;2.40;1.20;;;;;;;;;;5047461;28;20041;-59
2022/09/02 08:02:20;;;;;;;2.80;0.90;;;;;;;;;;5046742;28;20059;-59
2022/09/02 08:05:05;;;;;;;2.88;0.90;;;;;;;;;;5037177;28;20476;-58
2022/09/02 08:07:50;;;;;;;2.67;0.90;;;;;;;;;;5037210;28;20057;-57
2022/09/02 08:10:34;;;;;;;2.10;0.82;;;;;;;;;;5049111;28;20099;-58
2022/09/02 08:13:19;;;;;;;6.70;1.10;;;;;;;;;;5044780;28;20190;-57
2022/09/02 08:16:04;;;;;;;3.58;0.95;;;;;;;;;;5024791;28;20033;-58
2022/09/02 08:18:48;;;;;;;3.17;0.88;;;;;;;;;;5047378;28;20067;-59
2022/09/02 08:21:32;;;;;;;2.90;1.23;;;;;;;;;;5045012;28;20037;-59
2022/09/02 08:24:17;;;;;;;1.92;1.00;;;;;;;;;;5040251;28;20415;-59
2022/09/02 08:27:01;;;;;;;4.75;1.27;;;;;;;;;;5041164;28;20484;-59
2022/09/02 08:29:45;;;;;;;5.05;1.10;;;;;;;;;;5040301;28;20041;-58
2022/09/02 08:32:31;;;;;;;2.67;1.02;;;;;;;;;;5044801;28;20473;-62
2022/09/02 08:35:16;;;;;;;3.75;1.00;;;;;;;;;;5037727;28;20033;-56
2022/09/02 08:38:00;;;;;;;1.83;1.02;;;;;;;;;;5033980;28;20038;-42
2022/09/02 08:40:45;;;;;;;2.65;1.00;;;;;;;;;;5039450;28;20060;-41
2022/09/02 08:43:41;;;;;;;6.03;1.30;;;;;;;;;;5042711;28;20118;-44
2022/09/02 08:46:27;;;;;;;3.13;1.00;;;;;;;;;;5042215;28;20386;-43
2022/09/02 08:49:27;;;;;;;4.40;0.93;;;;;;;;;;5042724;28;20037;-43
2022/09/02 08:52:14;;;;;;;5.15;1.00;;;;;;;;;;5043325;28;20135;-43
2022/09/02 08:54:59;;;;;;;3.50;1.15;;;;;;;;;;5045212;28;20120;-59
2022/09/02 08:57:44;;;;;;;3.30;1.00;;;;;;;;;;5042548;28;20063;-60
2022/09/02 09:00:33;;;;;;;4.10;1.42;;;;;;;;;;5044284;28;20098;-61
2022/09/02 09:03:21;;;;;;;4.20;1.05;;;;;;;;;;5055568;28;20033;-63
2022/09/02 09:06:24;;;;;;;2.30;0.95;;;;;;;;;;5036831;28;20128;-59
2022/09/02 09:09:08;;;;;;;5.22;1.00;;;;;;;;;;5039157;28;20041;-60
2022/09/02 09:11:53;;;;;;;6.00;1.00;;;;;;;;;;5036308;28;20091;-58
2022/09/02 09:15:16;;;;;;;2.72;1.02;;;;;;;;;;5034573;28;20063;-59
2022/09/02 09:18:02;;;;;;;4.53;0.93;;;;;;;;;;5029296;28;20041;-61
2022/09/02 09:20:47;;;;;;;5.00;1.38;;;;;;;;;;5017168;28;20620;-58
2022/09/02 09:23:33;;;;;;;1.80;0.88;;;;;;;;;;5014590;28;20136;-59
2022/09/02 09:26:19;;;;;;;2.65;0.93;;;;;;;;;;5043174;28;20060;-59
2022/09/02 09:29:04;;;;;;;3.17;0.88;;;;;;;;;;5025803;28;20041;-57
2022/09/02 09:31:56;;;;;;;2.88;0.88;;;;;;;;;;5039362;28;20676;-60
2022/09/02 09:34:52;;;;;;;2.58;0.85;;;;;;;;;;5022047;28;20053;-58
2022/09/02 09:37:41;;;;;;;3.40;0.90;;;;;;;;;;5026344;28;20053;-58
2022/09/02 09:40:27;;;;;;;3.95;1.00;;;;;;;;;;5026627;28;20041;-58
2022/09/02 09:43:13;;;;;;;4.20;1.17;;;;;;;;;;5020669;28;20493;-58
2022/09/02 09:45:57;;;;;;;2.78;0.90;;;;;;;;;;5018706;28;20503;-58
2022/09/02 09:48:48;;;;;;;3.70;0.88;;;;;;;;;;5036774;28;20069;-58
2022/09/02 09:51:32;;;;;;;4.20;0.90;;;;;;;;;;5042468;28;20136;-57
2022/09/02 09:54:17;;;;;;;3.38;1.10;;;;;;;;;;5034520;28;20550;-59
2022/09/02 09:57:20;;;;;;;4.93;0.80;;;;;;;;;;5026342;28;20125;-58
2022/09/02 10:00:18;;;;;;;2.10;0.70;;;;;;;;;;5045767;28;20041;-59
2022/09/02 10:03:04;;;;;;;3.13;1.23;;;;;;;;;;5039372;28;20082;-57
2022/09/02 10:05:52;;;;;;;5.63;0.75;;;;;;;;;;5034839;28;20437;-55
2022/09/02 10:08:48;;;;;;;4.20;1.10;;;;;;;;;;5048032;28;20045;-59
2022/09/02 10:11:34;;;;;;;11.07;1.00;;;;;;;;;;5031905;28;20033;-57
2022/09/02 10:14:18;;;;;;;1.58;1.00;;;;;;;;;;5042367;28;20045;-57
2022/09/02 10:17:03;;;;;;;2.88;0.77;;;;;;;;;;5044859;28;20049;-46
2022/09/02 10:19:53;;;;;;;2.53;1.02;;;;;;;;;;5044405;28;20809;-46
2022/09/02 10:22:43;;;;;;;2.80;1.10;;;;;;;;;;5042337;28;20071;-44
2022/09/02 10:25:30;;;;;;;1.83;0.80;;;;;;;;;;5039816;28;20603;-45
2022/09/02 10:28:53;;;;;;;3.92;0.90;;;;;;;;;;5041048;28;20121;-44
2022/09/02 10:31:38;;;;;;;3.65;1.00;;;;;;;;;;5045581;28;20045;-58
2022/09/02 10:34:43;;;;;;;2.85;1.02;;;;;;;;;;5033291;28;20041;-57
2022/09/02 10:37:47;;;;;;;6.85;2.70;;;;;;;;;;5040702;28;20473;-57
2022/09/02 10:40:37;;;;;;;168.52;44.90;;;;;;;;;;5039194;28;20060;-58
2022/09/02 10:43:27;;;;;;;62.40;20.30;;;;;;;;;;5028221;28;20049;-60
2022/09/02 10:46:16;;;;;;;9.20;3.80;;;;;;;;;;5044346;28;20059;-59
2022/09/02 10:49:22;;;;;;;10.05;3.60;;;;;;;;;;5045481;28;20045;-59
2022/09/02 10:52:16;;;;;;;4.07;1.48;;;;;;;;;;5045340;28;20052;-58
2022/09/02 10:55:01;;;;;;;1.30;0.90;;;;;;;;;;5024743;28;20045;-58
2022/09/02 10:57:57;;;;;;;2.20;0.85;;;;;;;;;;5044889;28;20132;-56
2022/09/02 11:00:43;;;;;;;1.40;0.60;;;;;;;;;;5011448;28;20046;-58
2022/09/02 11:03:31;;;;;;;1.40;0.55;;;;;;;;;;5049452;28;20056;-58
2022/09/02 11:06:27;;;;;;;2.72;0.80;;;;;;;;;;5048678;28;20041;-59
2022/09/02 11:09:19;;;;;;;2.13;0.80;;;;;;;;;;5042729;28;20045;-58
2022/09/02 11:12:08;;;;;;;1.75;0.40;;;;;;;;;;5034840;28;20044;-58
2022/09/02 11:15:08;;;;;;;2.25;0.65;;;;;;;;;;5036122;28;20542;-59
2022/09/02 11:17:59;;;;;;;1.52;0.32;;;;;;;;;;5040022;28;20361;-59
2022/09/02 11:20:53;;;;;;;2.88;0.60;;;;;;;;;;5037444;28;20040;-59
2022/09/02 11:23:40;;;;;;;0.75;0.43;;;;;;;;;;5034963;28;20048;-59
2022/09/02 11:26:30;;;;;;;0.95;0.40;;;;;;;;;;5046751;28;20047;-59
2022/09/02 11:29:33;;;;;;;1.05;0.40;;;;;;;;;;5045495;28;20056;-63
2022/09/02 11:32:35;;;;;;;4.57;0.80;;;;;;;;;;5036291;28;20404;-49
2022/09/02 11:35:25;;;;;;;2.58;0.63;;;;;;;;;;5039211;28;20441;-51
2022/09/02 11:38:22;;;;;;;0.97;0.43;;;;;;;;;;5038276;28;20404;-49
2022/09/02 11:41:27;;;;;;;3.05;0.50;;;;;;;;;;5038661;28;20296;-54
2022/09/02 11:44:31;;;;;;;1.10;0.52;;;;;;;;;;5033119;28;20218;-58
2022/09/02 11:47:15;;;;;;;1.90;0.68;;;;;;;;;;5042946;28;20084;-59
2022/09/02 11:50:12;;;;;;;1.25;0.55;;;;;;;;;;5046991;28;20091;-59
2022/09/02 11:53:14;;;;;;;2.75;1.20;;;;;;;;;;5036163;28;20037;-58
2022/09/02 11:56:32;;;;;;;2.97;1.20;;;;;;;;;;5039489;28;20094;-59
2022/09/02 11:59:22;;;;;;;0.90;0.40;;;;;;;;;;5027949;28;20381;-59
2022/09/02 12:02:07;;;;;;;3.15;0.90;;;;;;;;;;5065849;28;20548;-59
2022/09/02 12:05:00;;;;;;;1.67;0.65;;;;;;;;;;5030969;28;20037;-57
2022/09/02 12:07:48;;;;;;;0.80;0.40;;;;;;;;;;5034997;28;20144;-58
2022/09/02 12:10:42;;;;;;;1.42;0.40;;;;;;;;;;5041933;28;20051;-58
2022/09/02 12:13:48;;;;;;;1.88;0.47;;;;;;;;;;5033803;28;20124;-59
2022/09/02 12:16:32;;;;;;;4.93;0.60;;;;;;;;;;5042711;28;20492;-61
2022/09/02 12:19:23;;;;;;;1.60;0.50;;;;;;;;;;5029417;28;20054;-58
2022/09/02 12:22:31;;;;;;;1.45;0.55;;;;;;;;;;5036496;28;20045;-58
2022/09/02 12:25:25;;;;;;;1.17;0.30;;;;;;;;;;5014309;28;20540;-58
2022/09/02 12:28:25;;;;;;;1.63;0.63;;;;;;;;;;5043260;28;20361;-59
2022/09/02 12:31:14;;;;;;;2.97;0.65;;;;;;;;;;5046222;28;20055;-59
2022/09/02 12:34:01;;;;;;;2.78;0.60;;;;;;;;;;5047195;28;20444;-58
2022/09/02 12:36:50;;;;;;;1.88;0.63;;;;;;;;;;5046754;28;20029;-59
2022/09/02 12:39:35;;;;;;;0.82;0.50;;;;;;;;;;5038843;28;20040;-59
2022/09/02 12:42:32;;;;;;;3.13;0.70;;;;;;;;;;5040851;28;20488;-58
2022/09/02 12:45:23;;;;;;;1.40;0.50;;;;;;;;;;5044288;28;20052;-59
2022/09/02 12:48:11;;;;;;;2.28;0.60;;;;;;;;;;5031796;28;20559;-59
2022/09/02 12:50:56;;;;;;;4.63;1.67;;;;;;;;;;5047772;28;20056;-58
2022/09/02 12:53:43;;;;;;;2.75;1.17;;;;;;;;;;5052144;28;20105;-58
2022/09/02 12:56:28;;;;;;;2.72;1.70;;;;;;;;;;5049703;28;20061;-57
2022/09/02 12:59:21;;;;;;;1.60;0.70;;;;;;;;;;5047678;28;20037;-57
2022/09/02 13:02:09;;;;;;;2.17;0.35;;;;;;;;;;5040113;28;20049;-58
2022/09/02 13:05:00;;;;;;;0.73;0.38;;;;;;;;;;5029643;28;20065;-58
2022/09/02 13:07:45;;;;;;;0.77;0.40;;;;;;;;;;5042814;28;20725;-57
2022/09/02 13:10:50;;;;;;;1.08;0.50;;;;;;;;;;5032394;28;20343;-58
2022/09/02 13:13:54;;;;;;;2.45;0.50;;;;;;;;;;5033884;28;20044;-58
2022/09/02 13:16:57;;;;;;;1.58;0.50;;;;;;;;;;5048869;28;20045;-58
2022/09/02 13:19:47;;;;;;;3.38;0.70;;;;;;;;;;5045170;28;20056;-58
2022/09/02 13:22:38;;;;;;;1.73;0.60;;;;;;;;;;5049108;28;20140;-58
2022/09/02 13:25:31;;;;;;;0.87;0.50;;;;;;;;;;5042169;28;20059;-58
2022/09/02 13:28:22;;;;;;;2.45;1.00;;;;;;;;;;5043386;28;20137;-58
2022/09/02 13:31:09;;;;;;;2.77;0.63;;;;;;;;;;5035949;28;20045;-59
2022/09/02 13:33:57;;;;;;;2.92;1.20;;;;;;;;;;5033229;28;20032;-58
2022/09/02 13:36:43;;;;;;;1.35;0.60;;;;;;;;;;5045403;28;20044;-58
2022/09/02 13:39:28;;;;;;;1.08;0.30;;;;;;;;;;5043554;28;20067;-60
2022/09/02 13:42:16;;;;;;;1.90;0.82;;;;;;;;;;5032900;28;20049;-59
2022/09/02 13:45:18;;;;;;;1.27;0.70;;;;;;;;;;5043055;28;20148;-60
2022/09/02 13:48:21;;;;;;;1.77;0.50;;;;;;;;;;5039851;28;20756;-60
2022/09/02 13:51:15;;;;;;;1.17;0.45;;;;;;;;;;5044496;28;20037;-56
2022/09/02 13:53:59;;;;;;;1.65;0.57;;;;;;;;;;5043649;28;20037;-58
2022/09/02 13:56:44;;;;;;;2.22;0.50;;;;;;;;;;5039305;28;20067;-58
2022/09/02 13:59:39;;;;;;;1.60;0.60;;;;;;;;;;5043812;28;20064;-58
2022/09/02 14:02:26;;;;;;;3.22;0.90;;;;;;;;;;5051626;28;20069;-58
2022/09/02 14:05:15;;;;;;;0.98;0.40;;;;;;;;;;5045429;28;20064;-58
2022/09/02 14:08:01;;;;;;;1.02;0.63;;;;;;;;;;5055914;28;20069;-58
2022/09/02 14:10:47;;;;;;;1.30;0.40;;;;;;;;;;5050388;28;20052;-58
2022/09/02 14:13:31;;;;;;;2.17;0.47;;;;;;;;;;5045934;28;20134;-59
2022/09/02 14:16:46;;;;;;;1.40;0.38;;;;;;;;;;5045399;28;20425;-58
2022/09/02 14:19:31;;;;;;;1.17;0.30;;;;;;;;;;5039708;28;20141;-59
2022/09/02 14:22:22;;;;;;;3.63;0.57;;;;;;;;;;5041297;28;20048;-58
2022/09/02 14:25:07;;;;;;;1.33;0.40;;;;;;;;;;5075812;28;20147;-57
2022/09/02 14:27:52;;;;;;;1.13;0.70;;;;;;;;;;5032882;28;20125;-58
2022/09/02 14:30:39;;;;;;;0.47;0.30;;;;;;;;;;5038903;28;20045;-58
2022/09/02 14:33:42;;;;;;;0.93;0.45;;;;;;;;;;5038391;28;20037;-58
2022/09/02 14:36:32;;;;;;;2.33;0.30;;;;;;;;;;5044779;28;20544;-59
2022/09/02 14:39:17;;;;;;;2.67;0.63;;;;;;;;;;5044408;28;20044;-58
2022/09/02 14:42:05;;;;;;;1.55;0.50;;;;;;;;;;5041833;28;20048;-57
2022/09/02 14:44:49;;;;;;;0.75;0.20;;;;;;;;;;5038614;28;20483;-58
2022/09/02 14:47:36;;;;;;;1.08;0.22;;;;;;;;;;5043402;28;20040;-58
2022/09/02 14:50:23;;;;;;;2.03;0.50;;;;;;;;;;5049242;28;20127;-58
2022/09/02 14:53:08;;;;;;;2.28;0.43;;;;;;;;;;5043249;28;20041;-58
2022/09/02 14:55:54;;;;;;;1.30;0.40;;;;;;;;;;5048436;28;20136;-60
2022/09/02 14:58:38;;;;;;;0.60;0.20;;;;;;;;;;5037915;28;20048;-59
2022/09/02 15:01:22;;;;;;;1.35;0.30;;;;;;;;;;5049788;28;20047;-58
2022/09/02 15:04:07;;;;;;;2.50;0.43;;;;;;;;;;5045882;28;20065;-59
2022/09/02 15:06:52;;;;;;;0.63;0.50;;;;;;;;;;5043759;28;20032;-60
2022/09/02 15:09:37;;;;;;;0.95;0.40;;;;;;;;;;5034848;28;20116;-60
2022/09/02 15:12:24;;;;;;;0.57;0.22;;;;;;;;;;5017463;28;20448;-58
2022/09/02 15:15:08;;;;;;;1.60;0.63;;;;;;;;;;5049470;28;20045;-57
2022/09/02 15:17:55;;;;;;;0.88;0.50;;;;;;;;;;5034190;28;20049;-57
2022/09/02 15:20:39;;;;;;;1.75;0.45;;;;;;;;;;5033931;28;20092;-58
2022/09/02 15:23:26;;;;;;;2.00;0.65;;;;;;;;;;5036443;28;20039;-58
2022/09/02 15:26:10;;;;;;;1.23;0.47;;;;;;;;;;5042791;28;20044;-58
2022/09/02 15:28:55;;;;;;;2.35;0.52;;;;;;;;;;5037026;28;20067;-58
2022/09/02 15:31:40;;;;;;;2.15;0.50;;;;;;;;;;5032425;28;20041;-59
2022/09/02 15:34:24;;;;;;;2.58;0.60;;;;;;;;;;5036529;28;20073;-56
2022/09/02 15:37:09;;;;;;;1.55;0.32;;;;;;;;;;5032396;28;20530;-58
2022/09/02 15:39:54;;;;;;;1.20;0.50;;;;;;;;;;5035877;28;20112;-58
2022/09/02 15:42:38;;;;;;;1.55;0.70;;;;;;;;;;5034891;28;20047;-58
2022/09/02 15:45:22;;;;;;;1.30;0.60;;;;;;;;;;5026190;28;20124;-55
2022/09/02 15:48:07;;;;;;;1.60;0.40;;;;;;;;;;5041348;28;20044;-58
2022/09/02 15:50:53;;;;;;;2.17;0.40;;;;;;;;;;5041118;28;20043;-59
2022/09/02 15:53:37;;;;;;;1.48;0.70;;;;;;;;;;5047594;28;20115;-58
2022/09/02 15:56:23;;;;;;;1.77;0.30;;;;;;;;;;5041435;28;20042;-56
2022/09/02 15:59:11;;;;;;;1.30;0.40;;;;;;;;;;5039415;28;20086;-59
2022/09/02 16:01:57;;;;;;;1.88;0.35;;;;;;;;;;5024097;28;20041;-58
2022/09/02 16:04:42;;;;;;;1.02;0.45;;;;;;;;;;5043566;28;20054;-59
2022/09/02 16:07:27;;;;;;;1.67;0.47;;;;;;;;;;5039309;28;20079;-57
2022/09/02 16:10:18;;;;;;;0.65;0.32;;;;;;;;;;5046867;28;20071;-58
2022/09/02 16:13:06;;;;;;;1.33;0.73;;;;;;;;;;5043196;28;20056;-58
2022/09/02 16:15:58;;;;;;;2.53;0.50;;;;;;;;;;5040368;28;20392;-58
2022/09/02 16:18:43;;;;;;;1.05;0.50;;;;;;;;;;5035732;28;20488;-60
2022/09/02 16:21:28;;;;;;;1.48;0.73;;;;;;;;;;5045406;28;20044;-58
2022/09/02 16:24:12;;;;;;;2.28;0.60;;;;;;;;;;5043445;28;20116;-59
2022/09/02 16:26:56;;;;;;;2.30;1.20;;;;;;;;;;5051563;28;20060;-59
2022/09/02 16:29:41;;;;;;;1.75;0.73;;;;;;;;;;5043684;28;20034;-59
2022/09/02 16:32:25;;;;;;;1.10;0.45;;;;;;;;;;5042337;28;20082;-60
2022/09/02 16:35:10;;;;;;;1.30;0.43;;;;;;;;;;5048070;28;20045;-57
2022/09/02 16:37:56;;;;;;;1.95;0.70;;;;;;;;;;5042019;28;20116;-59
2022/09/02 16:40:48;;;;;;;1.08;0.50;;;;;;;;;;5030632;28;20053;-61
2022/09/02 16:43:33;;;;;;;1.73;0.50;;;;;;;;;;5041364;28;20105;-59
2022/09/02 16:46:17;;;;;;;2.08;0.50;;;;;;;;;;5043827;28;20075;-58
2022/09/02 16:49:02;;;;;;;2.55;0.60;;;;;;;;;;5037823;28;20037;-59
2022/09/02 16:51:48;;;;;;;1.33;0.50;;;;;;;;;;5043380;28;20029;-59
2022/09/02 16:54:33;;;;;;;1.70;0.60;;;;;;;;;;5040056;28;20116;-52